»·PEaware :: N143VT KCPR-KCOS

N143VT :: KCPR-KCOS

FLIGHT INFORMATION

Flight Status: Arrived
Operator: Privately registered:
United States
More flights under this callsign
Pilot: Anonymous 16492 (16492)
Aircraft: BOMBARDIER BD-100 CHALLENGER 300
(CL30)
More flights by this aircraft type
Origin: KCPR Natrona Co Intl
United States
Destination: KCOS City Of Colorado Springs Mun
United States
More flights between these airports :: More routes between these airports
Route: ALCOS6 MBW DBL V421 HBU DBRY3
File this flight plan on PilotEdge
Remarks:
Altitude:
(Current/Filed)
31,000ft
Speed:
(Current/Filed)
440kts
Departed: 04-Aug-18 09:26 AM
Arrived: 04-Aug-18 10:39 AM
Distance/Time
Traveled:
258nm/1:13
Distance/Time
To Go:
Arrived

Flight Plot

Page will automatically refresh every two minutes.

Flight plan parsing failed; only flown route is shown


Map Options




Map Legend


Flown Route
Filed Route
Departure Airport
Arrival Airport
Navaid (VOR, NDB)
Fix

Horizontal Profiles

Position Reports

Time Latitude Longitude Heading Altitude Ground
Speed
04-Aug-18 09:05 42.902676 -106.459524 313 5353ft 0kts
04-Aug-18 09:06 42.902676 -106.459524 313 5353ft 0kts
04-Aug-18 09:07 42.902676 -106.459524 313 5353ft 0kts
04-Aug-18 09:08 42.902676 -106.459524 313 5353ft 0kts
04-Aug-18 09:09 42.902676 -106.459524 313 5353ft 0kts
04-Aug-18 09:10 42.902676 -106.459524 313 5353ft 0kts
04-Aug-18 09:11 42.902676 -106.459524 313 5353ft 0kts
04-Aug-18 09:12 42.902676 -106.459524 313 5353ft 0kts
04-Aug-18 09:13 42.902676 -106.459524 313 5353ft 0kts
04-Aug-18 09:14 42.902676 -106.459524 313 5353ft 0kts
04-Aug-18 09:15 42.902676 -106.459524 313 5353ft 0kts
04-Aug-18 09:16 42.902676 -106.459524 313 5353ft 0kts
04-Aug-18 09:17 42.902676 -106.459524 313 5353ft 0kts
04-Aug-18 09:18 42.902676 -106.459524 313 5353ft 0kts
04-Aug-18 09:19 42.902676 -106.459524 313 5353ft 0kts
04-Aug-18 09:20 42.902676 -106.459524 313 5353ft 0kts
04-Aug-18 09:21 42.902676 -106.459524 313 5353ft 0kts
04-Aug-18 09:22 42.902851 -106.459701 341 5353ft 6kts
04-Aug-18 09:23 42.906956 -106.454621 43 5353ft 27kts
04-Aug-18 09:24 42.911856 -106.448260 43 5354ft 20kts
04-Aug-18 09:25 42.912608 -106.448060 310 5354ft 0kts
04-Aug-18 09:26 42.912720 -106.449872 224 5354ft 34kts
04-Aug-18 09:27 42.881572 -106.483212 213 6526ft 214kts
04-Aug-18 09:28 42.836091 -106.528536 221 10072ft 214kts
04-Aug-18 09:29 42.778449 -106.560555 167 12534ft 281kts
04-Aug-18 09:30 42.690154 -106.512384 161 13995ft 390kts
04-Aug-18 09:31 42.591456 -106.453598 161 16268ft 371kts
04-Aug-18 09:32 42.495372 -106.395467 161 19447ft 391kts
04-Aug-18 09:33 42.394095 -106.334024 162 22181ft 410kts
04-Aug-18 09:34 42.288155 -106.269885 162 24533ft 427kts
04-Aug-18 09:35 42.178083 -106.203463 162 26585ft 442kts
04-Aug-18 09:36 42.064523 -106.135172 162 28658ft 449kts
04-Aug-18 09:37 41.951315 -106.067364 163 30854ft 447kts
04-Aug-18 09:38 41.832145 -106.025171 195 31268ft 451kts
04-Aug-18 09:39 41.707442 -106.060368 201 31246ft 457kts
04-Aug-18 09:40 41.586138 -106.104157 203 31245ft 450kts
04-Aug-18 09:41 41.466317 -106.149228 203 31246ft 446kts
04-Aug-18 09:42 41.347510 -106.194160 203 31249ft 445kts
04-Aug-18 09:43 41.228919 -106.238904 203 31250ft 446kts
04-Aug-18 09:44 41.110007 -106.283619 203 31251ft 446kts
04-Aug-18 09:45 40.990618 -106.328378 203 31254ft 448kts
04-Aug-18 09:46 40.871579 -106.372791 203 31266ft 451kts
04-Aug-18 09:47 40.751005 -106.417607 202 31278ft 453kts
04-Aug-18 09:48 40.629675 -106.462546 202 31278ft 455kts
04-Aug-18 09:49 40.508067 -106.507420 202 31278ft 456kts
04-Aug-18 09:50 40.386064 -106.552271 202 31270ft 458kts
04-Aug-18 09:51 40.263503 -106.597159 202 31278ft 458kts
04-Aug-18 09:52 40.141039 -106.641842 202 31281ft 459kts
04-Aug-18 09:53 40.019285 -106.686078 202 31344ft 451kts
04-Aug-18 09:54 39.899822 -106.729340 202 31361ft 444kts
04-Aug-18 09:55 39.781741 -106.771959 202 31356ft 438kts
04-Aug-18 09:56 39.665318 -106.813820 202 31358ft 434kts
04-Aug-18 09:57 39.549866 -106.855179 203 31357ft 431kts
04-Aug-18 09:58 39.434654 -106.893393 195 31365ft 435kts
04-Aug-18 09:59 39.314848 -106.912775 195 31367ft 434kts
04-Aug-18 10:00 39.195989 -106.930674 195 31335ft 419kts
04-Aug-18 10:01 39.081399 -106.947712 195 30186ft 416kts
04-Aug-18 10:02 38.966349 -106.964744 193 28583ft 421kts
04-Aug-18 10:03 38.849786 -106.981868 192 26700ft 428kts
04-Aug-18 10:04 38.731947 -106.999056 191 24769ft 428kts
04-Aug-18 10:05 38.613818 -107.016280 190 22439ft 429kts
04-Aug-18 10:06 38.500787 -107.000832 141 21019ft 417kts
04-Aug-18 10:07 38.455389 -106.870424 101 19900ft 402kts
04-Aug-18 10:08 38.439435 -106.731698 94 18461ft 390kts
04-Aug-18 10:09 38.430165 -106.596220 93 17422ft 378kts
04-Aug-18 10:10 38.422249 -106.459059 92 17424ft 394kts
04-Aug-18 10:11 38.414520 -106.320710 93 17418ft 390kts
04-Aug-18 10:12 38.406850 -106.184462 93 17419ft 382kts
04-Aug-18 10:13 38.399127 -106.049490 93 17184ft 383kts
04-Aug-18 10:14 38.391275 -105.914996 93 17182ft 378kts
04-Aug-18 10:15 38.383451 -105.782642 96 17155ft 373kts
04-Aug-18 10:16 38.375451 -105.651248 96 17155ft 369kts
04-Aug-18 10:17 38.367441 -105.521688 96 17111ft 368kts
04-Aug-18 10:18 38.359232 -105.391174 96 17012ft 371kts
04-Aug-18 10:19 38.350848 -105.260155 96 16980ft 373kts
04-Aug-18 10:20 38.342283 -105.128643 96 16980ft 372kts
04-Aug-18 10:21 38.333583 -104.997539 95 16973ft 369kts
04-Aug-18 10:22 38.324787 -104.868151 92 16947ft 364kts
04-Aug-18 10:23 38.316250 -104.741873 92 15519ft 356kts
04-Aug-18 10:24 38.377456 -104.663432 13 13537ft 344kts
04-Aug-18 10:25 38.465838 -104.646789 5 12778ft 302kts
04-Aug-18 10:26 38.549262 -104.636787 7 11229ft 299kts
04-Aug-18 10:27 38.630278 -104.624041 7 9988ft 280kts
04-Aug-18 10:28 38.705503 -104.612504 7 10006ft 272kts
04-Aug-18 10:29 38.777570 -104.597444 17 10029ft 256kts
04-Aug-18 10:30 38.844969 -104.569941 17 10044ft 253kts
04-Aug-18 10:31 38.911432 -104.542881 17 10054ft 250kts
04-Aug-18 10:32 38.979539 -104.547851 352 10054ft 246kts
04-Aug-18 10:33 39.040247 -104.573900 289 9793ft 236kts
04-Aug-18 10:34 39.046295 -104.651381 272 9554ft 209kts
04-Aug-18 10:35 39.024051 -104.706673 187 8784ft 203kts
04-Aug-18 10:36 38.969924 -104.711223 183 8755ft 212kts
04-Aug-18 10:37 38.912313 -104.713658 181 8036ft 186kts
04-Aug-18 10:38 38.867373 -104.714632 181 6776ft 133kts
04-Aug-18 10:39 38.826612 -104.715855 181 6271ft 150kts
04-Aug-18 10:40 38.814205 -104.715925 181 6193ft 7kts
04-Aug-18 10:41 38.812497 -104.717695 269 6193ft 11kts
04-Aug-18 10:42 38.811391 -104.720975 112 6193ft 0kts
04-Aug-18 10:43 38.811391 -104.720975 112 6193ft 0kts
04-Aug-18 10:44 38.811391 -104.720975 112 6193ft 0kts
04-Aug-18 10:45 38.811391 -104.720975 112 6193ft 0kts
04-Aug-18 10:46 38.811391 -104.720975 112 6193ft 0kts
04-Aug-18 10:47 38.811391 -104.720975 112 6193ft 0kts
04-Aug-18 10:48 38.811391 -104.720975 112 6193ft 0kts
04-Aug-18 10:49 38.811391 -104.720975 112 6193ft 0kts
04-Aug-18 10:50 38.811391 -104.720975 112 6193ft 0kts
04-Aug-18 10:51 38.811391 -104.720975 112 6193ft 0kts
04-Aug-18 10:52 38.811391 -104.720975 112 6193ft 0kts
04-Aug-18 10:53 38.811391 -104.720975 112 6193ft 0kts
04-Aug-18 10:54 38.811391 -104.720975 112 6193ft 0kts

Navigation Log

Ident Type
Flight plan parsing failed, navigation log unavailable